Puunene, Hawaii
Current Conditions -  °F | °C
As of 12:54 PM on Saturday 20 Dec 2014 (Local Time) from PHOG Reporting Station
Scattered Clouds Scattered Clouds  
Wind Chill: 83°   Ceiling: Unl
Heat Index: 83°   Visibility: 10mi
Dew Point: 59°   Wind: 0mph
Humidity: 44%   Direction: NA
Pressure: 29.98"   Gusts: NA
Location:  20.86°N, 156.45°W
Report Text: PHOG 202254Z 00000KT 10SM FEW050 SCT080 28/15 A2998 RMK AO2 SLP156 T02830150 $
Loading
Personal Weather Stations






























Interactive Weather Map New forecast layout! Learn more

10-Day Weather Forecast

Advertisements
Track Severe Weather on mobile